createdAt,value
2017-11-14T00:00:21.310Z,2.94
2017-11-14T00:01:21.296Z,3.00
2017-11-14T00:02:21.263Z,3.05
2017-11-14T00:03:21.237Z,3.05
2017-11-14T00:04:21.226Z,3.05
2017-11-14T00:05:21.185Z,3.05
2017-11-14T00:06:21.162Z,3.02
2017-11-14T00:07:21.140Z,3.07
2017-11-14T00:08:21.112Z,3.12
2017-11-14T00:09:21.100Z,3.05
2017-11-14T00:10:21.061Z,3.18
2017-11-14T00:11:21.044Z,3.11
2017-11-14T00:12:21.016Z,3.22
2017-11-14T00:13:20.985Z,3.23
2017-11-14T00:14:20.960Z,3.22
2017-11-14T00:15:20.937Z,3.23
2017-11-14T00:16:20.910Z,3.36
2017-11-14T00:17:20.882Z,3.35
2017-11-14T00:18:20.859Z,3.35
2017-11-14T00:19:20.830Z,3.35
2017-11-14T00:20:20.810Z,3.30
2017-11-14T00:21:20.788Z,3.30
2017-11-14T00:22:20.757Z,3.35
2017-11-14T00:23:20.743Z,3.32
2017-11-14T00:24:20.707Z,3.35
2017-11-14T00:25:20.719Z,3.26
2017-11-14T00:26:20.660Z,3.27
2017-11-14T00:27:20.627Z,3.26
2017-11-14T00:28:20.624Z,3.30
2017-11-14T00:29:20.583Z,3.32
2017-11-14T00:30:20.568Z,3.30
2017-11-14T00:31:20.538Z,3.25
2017-11-14T00:32:20.506Z,3.29
2017-11-14T00:33:20.483Z,3.29
2017-11-14T00:34:20.460Z,3.26
2017-11-14T00:35:20.434Z,3.25
2017-11-14T00:36:20.406Z,3.29
2017-11-14T00:37:20.379Z,3.25
2017-11-14T00:38:20.352Z,3.32
2017-11-14T00:39:20.352Z,3.22
2017-11-14T00:40:20.306Z,3.23
2017-11-14T00:41:20.282Z,3.30
2017-11-14T00:42:20.254Z,3.32
2017-11-14T00:43:20.230Z,3.32
2017-11-14T00:44:20.214Z,3.30
2017-11-14T00:45:20.186Z,3.25
2017-11-14T00:46:20.157Z,3.15
2017-11-14T00:47:20.127Z,3.20
2017-11-14T00:48:20.102Z,3.20
2017-11-14T00:49:20.078Z,3.18
2017-11-14T00:50:20.050Z,3.20
2017-11-14T00:51:20.031Z,3.25
2017-11-14T00:52:20.008Z,3.09
2017-11-14T00:53:19.984Z,3.25
2017-11-14T00:54:19.947Z,3.18
2017-11-14T00:55:19.929Z,3.08
2017-11-14T00:56:19.904Z,3.20
2017-11-14T00:57:22.729Z,3.15
2017-11-14T00:58:19.850Z,3.22
2017-11-14T00:59:19.838Z,3.18
2017-11-14T01:00:19.829Z,3.23
2017-11-14T01:01:19.799Z,3.29
2017-11-14T01:02:19.801Z,3.26
2017-11-14T01:03:19.723Z,3.29
2017-11-14T01:04:19.698Z,3.29
2017-11-14T01:05:19.672Z,3.33
2017-11-14T01:06:19.649Z,3.30
2017-11-14T01:07:19.626Z,3.29
2017-11-14T01:08:19.601Z,3.25
2017-11-14T01:09:19.568Z,3.30
2017-11-14T01:10:19.545Z,3.33
2017-11-14T01:11:19.519Z,3.26
2017-11-14T01:12:19.503Z,3.30
2017-11-14T01:13:19.471Z,3.26
2017-11-14T01:14:19.450Z,3.30
2017-11-14T01:15:19.425Z,3.29
2017-11-14T01:16:19.392Z,3.30
2017-11-14T01:17:19.370Z,3.26
2017-11-14T01:18:19.352Z,3.27
2017-11-14T01:19:19.321Z,3.36
2017-11-14T01:20:19.293Z,3.32
2017-11-14T01:21:19.267Z,3.35
2017-11-14T01:22:19.243Z,3.29
2017-11-14T01:23:19.220Z,3.30
2017-11-14T01:24:19.190Z,3.27
2017-11-14T01:25:19.166Z,3.33
2017-11-14T01:26:19.142Z,3.37
2017-11-14T01:27:19.113Z,3.35
2017-11-14T01:28:19.107Z,3.30
2017-11-14T01:29:19.072Z,3.45
2017-11-14T01:30:19.042Z,3.42
2017-11-14T01:31:19.030Z,3.45
2017-11-14T01:32:18.989Z,3.45
2017-11-14T01:33:18.973Z,3.44
2017-11-14T01:34:18.949Z,3.37
2017-11-14T01:35:18.925Z,3.48
2017-11-14T01:36:18.894Z,3.52
2017-11-14T01:37:18.864Z,3.44
2017-11-14T01:38:18.872Z,3.49
2017-11-14T01:39:18.812Z,3.49
2017-11-14T01:40:18.787Z,3.41
2017-11-14T01:41:18.765Z,3.46
2017-11-14T01:42:18.742Z,3.46
2017-11-14T01:43:18.716Z,3.48
2017-11-14T01:44:18.687Z,3.46
2017-11-14T01:45:18.667Z,3.48
2017-11-14T01:46:18.637Z,3.45
2017-11-14T01:47:18.618Z,3.49
2017-11-14T01:48:18.599Z,3.45
2017-11-14T01:49:18.560Z,3.51
2017-11-14T01:50:18.535Z,3.66
2017-11-14T01:51:18.519Z,3.55
2017-11-14T01:52:18.484Z,3.45
2017-11-14T01:53:18.466Z,3.42
2017-11-14T01:54:18.435Z,3.48
2017-11-14T01:55:18.415Z,3.48
2017-11-14T01:56:18.387Z,3.36
2017-11-14T01:57:18.362Z,3.41
2017-11-14T01:58:18.334Z,3.27
2017-11-14T01:59:18.311Z,3.30
2017-11-14T02:00:18.289Z,3.33
2017-11-14T02:01:18.273Z,3.26
2017-11-14T02:02:18.241Z,3.30
2017-11-14T02:03:18.209Z,3.26
2017-11-14T02:04:18.184Z,3.25
2017-11-14T02:05:18.160Z,3.18
2017-11-14T02:06:18.144Z,3.27
2017-11-14T02:07:18.121Z,3.22
2017-11-14T02:08:18.089Z,3.15
2017-11-14T02:09:18.060Z,3.17
2017-11-14T02:10:18.045Z,3.27
2017-11-14T02:11:18.004Z,3.23
2017-11-14T02:12:17.981Z,3.25
2017-11-14T02:13:17.964Z,3.20
2017-11-14T02:14:17.940Z,3.26
2017-11-14T02:15:17.958Z,3.26
2017-11-14T02:16:17.884Z,3.29
2017-11-14T02:17:17.856Z,3.32
2017-11-14T02:18:17.832Z,3.32
2017-11-14T02:19:17.806Z,3.27
2017-11-14T02:20:17.784Z,3.33
2017-11-14T02:21:17.756Z,3.30
2017-11-14T02:22:17.732Z,3.25
2017-11-14T02:23:17.710Z,3.25
2017-11-14T02:24:17.681Z,3.32
2017-11-14T02:25:17.657Z,3.29
2017-11-14T02:26:17.635Z,3.29
2017-11-14T02:27:17.603Z,3.29
2017-11-14T02:28:45.281Z,3.32
2017-11-14T02:29:17.560Z,3.29
2017-11-14T02:30:17.529Z,3.32
2017-11-14T02:31:17.506Z,3.33
2017-11-14T02:32:17.479Z,3.23
2017-11-14T02:33:17.460Z,3.27
2017-11-14T02:34:17.437Z,3.18
2017-11-14T02:35:17.399Z,3.25
2017-11-14T02:36:17.382Z,3.26
2017-11-14T02:37:17.356Z,3.29
2017-11-14T02:38:17.324Z,3.23
2017-11-14T02:39:17.304Z,3.22
2017-11-14T02:40:17.277Z,3.22
2017-11-14T02:41:17.257Z,3.18
2017-11-14T02:42:17.229Z,3.18
2017-11-14T02:43:17.202Z,3.17
2017-11-14T02:44:17.188Z,3.22
2017-11-14T02:45:17.153Z,3.22
2017-11-14T02:46:17.124Z,3.20
2017-11-14T02:47:17.116Z,3.23
2017-11-14T02:48:17.084Z,3.25
2017-11-14T02:49:17.049Z,3.30
2017-11-14T02:50:17.028Z,3.30
2017-11-14T02:51:17.030Z,3.37
2017-11-14T02:52:16.975Z,3.30
2017-11-14T02:53:16.963Z,3.27
2017-11-14T02:54:16.932Z,3.30
2017-11-14T02:55:16.907Z,3.41
2017-11-14T02:56:16.875Z,3.35
2017-11-14T02:57:16.847Z,3.45
2017-11-14T02:58:16.825Z,3.42
2017-11-14T02:59:16.798Z,3.42
2017-11-14T03:00:16.775Z,3.37
2017-11-14T03:01:16.747Z,3.42
2017-11-14T03:02:16.724Z,3.44
2017-11-14T03:03:16.698Z,3.44
2017-11-14T03:04:16.675Z,3.45
2017-11-14T03:05:16.648Z,3.44
2017-11-14T03:06:16.620Z,3.45
2017-11-14T03:07:16.608Z,3.52
2017-11-14T03:08:16.577Z,3.48
2017-11-14T03:09:16.560Z,3.46
2017-11-14T03:10:16.522Z,3.52
2017-11-14T03:11:16.493Z,3.45
2017-11-14T03:12:16.479Z,3.45
2017-11-14T03:13:16.449Z,3.49
2017-11-14T03:14:16.427Z,3.45
2017-11-14T03:15:16.401Z,3.48
2017-11-14T03:16:16.371Z,3.46
2017-11-14T03:17:16.345Z,3.49
2017-11-14T03:18:16.320Z,3.44
2017-11-14T03:19:16.295Z,3.59
2017-11-14T03:20:16.269Z,3.54
2017-11-14T03:21:16.248Z,3.56
2017-11-14T03:22:16.220Z,3.62
2017-11-14T03:23:16.197Z,3.52
2017-11-14T03:24:16.171Z,3.67
2017-11-14T03:25:16.150Z,3.62
2017-11-14T03:26:16.121Z,3.56
2017-11-14T03:27:16.132Z,3.62
2017-11-14T03:28:16.118Z,3.49
2017-11-14T03:29:16.051Z,3.55
2017-11-14T03:30:16.016Z,3.52
2017-11-14T03:31:15.994Z,3.51
2017-11-14T03:32:15.970Z,3.55
2017-11-14T03:33:15.952Z,3.44
2017-11-14T03:34:15.928Z,3.51
2017-11-14T03:35:15.893Z,3.54
2017-11-14T03:36:15.868Z,3.46
2017-11-14T03:37:15.846Z,3.48
2017-11-14T03:38:15.818Z,3.48
2017-11-14T03:39:15.791Z,3.46
2017-11-14T03:40:15.767Z,3.42
2017-11-14T03:41:15.744Z,3.48
2017-11-14T03:42:15.718Z,3.48
2017-11-14T03:43:15.690Z,3.55
2017-11-14T03:44:15.666Z,3.56
2017-11-14T03:45:15.649Z,3.55
2017-11-14T03:46:15.614Z,3.55
2017-11-14T03:47:15.595Z,3.56
2017-11-14T03:48:15.568Z,3.54
2017-11-14T03:49:15.541Z,3.56
2017-11-14T03:50:15.514Z,3.55
2017-11-14T03:51:15.489Z,3.55
2017-11-14T03:52:15.464Z,3.52
2017-11-14T03:53:15.448Z,3.42
2017-11-14T03:54:15.415Z,3.55
2017-11-14T03:55:15.391Z,3.49
2017-11-14T03:56:15.365Z,3.49
2017-11-14T03:57:15.339Z,3.46
2017-11-14T03:58:15.314Z,3.48
2017-11-14T03:59:15.288Z,3.45
2017-11-14T04:00:15.263Z,3.41
2017-11-14T04:01:15.239Z,3.41
2017-11-14T04:02:15.213Z,3.45
2017-11-14T04:03:15.190Z,3.44
2017-11-14T04:04:15.193Z,3.45
2017-11-14T04:05:15.143Z,3.42
2017-11-14T04:06:15.112Z,3.41
2017-11-14T04:07:15.095Z,3.36
2017-11-14T04:08:15.060Z,3.45
2017-11-14T04:09:15.048Z,3.45
2017-11-14T04:10:15.011Z,3.37
2017-11-14T04:11:14.985Z,3.30
2017-11-14T04:12:14.967Z,3.30
2017-11-14T04:13:14.936Z,3.26
2017-11-14T04:14:14.917Z,3.30
2017-11-14T04:15:14.896Z,3.30
2017-11-14T04:16:14.860Z,3.29
2017-11-14T04:17:14.835Z,3.33
2017-11-14T04:18:14.816Z,3.27
2017-11-14T04:19:14.786Z,3.23
2017-11-14T04:20:14.764Z,3.27
2017-11-14T04:21:14.745Z,3.23
2017-11-14T04:22:14.709Z,3.23
2017-11-14T04:23:14.683Z,3.29
2017-11-14T04:24:14.660Z,3.33
2017-11-14T04:25:14.651Z,3.27
2017-11-14T04:26:14.605Z,3.32
2017-11-14T04:27:14.581Z,3.33
2017-11-14T04:28:14.557Z,3.29
2017-11-14T04:29:14.538Z,3.35
2017-11-14T04:30:14.514Z,3.35
2017-11-14T04:31:14.478Z,3.32
2017-11-14T04:32:14.458Z,3.26
2017-11-14T04:33:14.438Z,3.37
2017-11-14T04:34:14.410Z,3.32
2017-11-14T04:35:14.381Z,3.36
2017-11-14T04:36:14.359Z,3.29
2017-11-14T04:37:14.335Z,3.41
2017-11-14T04:38:14.303Z,3.30
2017-11-14T04:39:14.283Z,3.23
2017-11-14T04:40:14.258Z,3.29
2017-11-14T04:41:14.269Z,3.30
2017-11-14T04:42:14.202Z,3.41
2017-11-14T04:43:14.183Z,3.42
2017-11-14T04:44:14.151Z,3.42
2017-11-14T04:45:14.126Z,3.45
2017-11-14T04:46:14.099Z,3.42
2017-11-14T04:47:14.088Z,3.36
2017-11-14T04:48:14.054Z,3.27
2017-11-14T04:49:14.022Z,3.41
2017-11-14T04:50:14.003Z,3.33
2017-11-14T04:51:13.984Z,3.30
2017-11-14T04:52:13.948Z,3.44
2017-11-14T04:53:13.925Z,3.37
2017-11-14T04:54:13.898Z,3.35
2017-11-14T04:55:13.885Z,3.45
2017-11-14T04:56:13.860Z,3.45
2017-11-14T04:57:13.821Z,3.44
2017-11-14T04:58:13.818Z,3.45
2017-11-14T04:59:34.778Z,3.45
2017-11-14T05:00:13.744Z,3.44
2017-11-14T05:01:13.725Z,3.42
2017-11-14T05:02:13.699Z,3.46
2017-11-14T05:03:13.670Z,3.49
2017-11-14T05:04:13.647Z,3.45
2017-11-14T05:05:13.622Z,3.54
2017-11-14T05:06:13.596Z,3.46
2017-11-14T05:07:13.576Z,3.45
2017-11-14T05:08:13.545Z,3.37
2017-11-14T05:09:13.528Z,3.32
2017-11-14T05:10:13.494Z,3.42
2017-11-14T05:11:13.469Z,3.44
2017-11-14T05:12:13.457Z,3.42
2017-11-14T05:13:13.420Z,3.44
2017-11-14T05:14:13.392Z,3.45
2017-11-14T05:15:13.369Z,3.46
2017-11-14T05:16:13.343Z,3.44
2017-11-14T05:17:13.357Z,3.42
2017-11-14T05:18:13.290Z,3.51
2017-11-14T05:19:13.263Z,3.44
2017-11-14T05:20:13.241Z,3.45
2017-11-14T05:21:13.221Z,3.46
2017-11-14T05:22:13.190Z,3.41
2017-11-14T05:23:13.167Z,3.49
2017-11-14T05:24:13.140Z,3.46
2017-11-14T05:25:13.115Z,3.55
2017-11-14T05:26:13.092Z,3.56
2017-11-14T05:27:13.061Z,3.55
2017-11-14T05:28:13.035Z,3.60
2017-11-14T05:29:13.021Z,3.62
2017-11-14T05:30:12.989Z,3.62
2017-11-14T05:31:12.959Z,3.59
2017-11-14T05:32:12.937Z,3.62
2017-11-14T05:33:12.910Z,3.60
2017-11-14T05:34:12.886Z,3.63
2017-11-14T05:35:12.868Z,3.55
2017-11-14T05:36:12.833Z,3.62
2017-11-14T05:37:12.809Z,3.59
2017-11-14T05:38:12.792Z,3.62
2017-11-14T05:39:12.755Z,3.64
2017-11-14T05:40:12.756Z,3.63
2017-11-14T05:41:12.709Z,3.69
2017-11-14T05:42:12.690Z,3.70
2017-11-14T05:43:12.666Z,3.70
2017-11-14T05:44:12.634Z,3.67
2017-11-14T05:45:12.613Z,3.74
2017-11-14T05:46:12.601Z,3.74
2017-11-14T05:47:12.556Z,3.76
2017-11-14T05:48:12.548Z,3.74
2017-11-14T05:49:12.509Z,3.73
2017-11-14T05:50:12.486Z,3.78
2017-11-14T05:51:12.462Z,3.73
2017-11-14T05:52:12.433Z,3.82
2017-11-14T05:53:12.453Z,3.80
2017-11-14T05:54:12.407Z,3.90
2017-11-14T05:55:12.352Z,3.84
2017-11-14T05:56:12.327Z,3.78
2017-11-14T05:57:12.305Z,3.84
2017-11-14T05:58:12.290Z,3.85
2017-11-14T05:59:12.265Z,3.90
2017-11-14T06:00:12.236Z,3.94
2017-11-14T06:01:12.216Z,3.94
2017-11-14T06:02:12.193Z,3.92
2017-11-14T06:03:12.163Z,3.94
2017-11-14T06:04:12.134Z,3.94
2017-11-14T06:05:12.107Z,3.98
2017-11-14T06:06:12.082Z,3.98
2017-11-14T06:07:12.050Z,3.99
2017-11-14T06:08:12.034Z,3.94
2017-11-14T06:09:12.007Z,3.98
2017-11-14T06:10:11.977Z,4.00
2017-11-14T06:11:11.952Z,4.05
2017-11-14T06:12:11.928Z,4.08
2017-11-14T06:13:11.909Z,3.96
2017-11-14T06:14:11.876Z,4.08
2017-11-14T06:15:11.854Z,4.03
2017-11-14T06:16:11.832Z,3.99
2017-11-14T06:17:11.803Z,3.94
2017-11-14T06:18:11.776Z,4.02
2017-11-14T06:19:11.757Z,3.96
2017-11-14T06:20:11.732Z,4.02
2017-11-14T06:21:11.706Z,4.03
2017-11-14T06:22:11.680Z,3.96
2017-11-14T06:23:11.653Z,4.03
2017-11-14T06:24:11.625Z,4.08
2017-11-14T06:25:11.602Z,4.03
2017-11-14T06:26:11.581Z,4.05
2017-11-14T06:27:11.555Z,4.02
2017-11-14T06:28:11.529Z,4.03
2017-11-14T06:29:11.505Z,4.09
2017-11-14T06:30:11.521Z,4.09
2017-11-14T06:31:11.480Z,4.09
2017-11-14T06:32:11.442Z,4.08
2017-11-14T06:33:11.399Z,4.08
2017-11-14T06:34:11.388Z,4.08
2017-11-14T06:35:11.350Z,4.08
2017-11-14T06:36:11.335Z,4.09
2017-11-14T06:37:11.307Z,4.06
2017-11-14T06:38:11.285Z,4.08
2017-11-14T06:39:11.255Z,4.03
2017-11-14T06:40:11.230Z,4.03
2017-11-14T06:41:11.200Z,4.02
2017-11-14T06:42:11.178Z,3.94
2017-11-14T06:43:11.156Z,4.05
2017-11-14T06:44:11.126Z,3.98
2017-11-14T06:45:11.098Z,3.98
2017-11-14T06:46:11.076Z,3.99
2017-11-14T06:47:11.048Z,4.02
2017-11-14T06:48:11.040Z,3.90
2017-11-14T06:49:11.000Z,3.82
2017-11-14T06:50:10.980Z,3.80
2017-11-14T06:51:10.956Z,3.84
2017-11-14T06:52:10.946Z,3.76
2017-11-14T06:53:10.900Z,3.82
2017-11-14T06:54:10.880Z,3.90
2017-11-14T06:55:10.853Z,3.87
2017-11-14T06:56:10.821Z,3.90
2017-11-14T06:57:10.800Z,3.87
2017-11-14T06:58:10.781Z,3.81
2017-11-14T06:59:10.751Z,3.85
2017-11-14T07:00:10.731Z,3.94
2017-11-14T07:01:10.704Z,3.88
2017-11-14T07:02:10.675Z,3.92
2017-11-14T07:03:10.655Z,3.92
2017-11-14T07:04:10.622Z,3.94
2017-11-14T07:05:10.596Z,4.03
2017-11-14T07:06:10.570Z,4.05
2017-11-14T07:07:10.596Z,3.99
2017-11-14T07:08:10.523Z,3.91
2017-11-14T07:09:10.501Z,3.91
2017-11-14T07:10:10.477Z,3.90
2017-11-14T07:11:10.444Z,3.92
2017-11-14T07:12:10.422Z,3.91
2017-11-14T07:13:10.396Z,3.94
2017-11-14T07:14:10.411Z,3.90
2017-11-14T07:15:10.344Z,3.92
2017-11-14T07:16:10.318Z,3.90
2017-11-14T07:17:10.299Z,3.85
2017-11-14T07:18:10.273Z,3.78
2017-11-14T07:19:10.244Z,3.90
2017-11-14T07:20:10.223Z,3.84
2017-11-14T07:21:10.198Z,3.84
2017-11-14T07:22:10.177Z,3.80
2017-11-14T07:23:10.144Z,3.78
2017-11-14T07:24:10.117Z,3.92
2017-11-14T07:25:10.098Z,3.80
2017-11-14T07:26:10.075Z,3.84
2017-11-14T07:27:10.042Z,3.81
2017-11-14T07:28:10.021Z,3.81
2017-11-14T07:29:09.994Z,3.84
2017-11-14T07:30:09.967Z,3.76
2017-11-14T07:31:09.942Z,3.85
2017-11-14T07:32:09.927Z,3.88
2017-11-14T07:33:09.892Z,3.81
2017-11-14T07:34:09.867Z,3.85
2017-11-14T07:35:09.850Z,3.82
2017-11-14T07:36:09.817Z,3.80
2017-11-14T07:37:09.828Z,3.88
2017-11-14T07:38:09.772Z,3.91
2017-11-14T07:39:09.742Z,3.92
2017-11-14T07:40:09.721Z,3.98
2017-11-14T07:41:09.689Z,3.96
2017-11-14T07:42:09.667Z,3.96
2017-11-14T07:43:09.678Z,3.94
2017-11-14T07:44:09.615Z,4.09
2017-11-14T07:45:09.602Z,4.08
2017-11-14T07:46:09.570Z,4.09
2017-11-14T07:47:09.542Z,4.12
2017-11-14T07:48:09.585Z,4.10
2017-11-14T07:49:09.511Z,4.12
2017-11-14T07:50:09.465Z,4.12
2017-11-14T07:51:09.463Z,4.13
2017-11-14T07:52:09.412Z,4.16
2017-11-14T07:53:09.418Z,4.13
2017-11-14T07:54:09.366Z,4.16
2017-11-14T07:55:09.337Z,4.23
2017-11-14T07:56:09.319Z,4.26
2017-11-14T07:57:09.291Z,4.21
2017-11-14T07:58:09.267Z,4.26
2017-11-14T07:59:09.243Z,4.30
2017-11-14T08:00:11.835Z,4.30
2017-11-14T08:01:09.190Z,4.35
2017-11-14T08:02:09.162Z,4.26
2017-11-14T08:03:09.140Z,4.24
2017-11-14T08:04:09.113Z,4.24
2017-11-14T08:05:09.093Z,4.26
2017-11-14T08:06:09.068Z,4.27
2017-11-14T08:07:09.044Z,4.36
2017-11-14T08:08:09.011Z,4.23
2017-11-14T08:09:08.990Z,4.31
2017-11-14T08:10:08.965Z,4.38
2017-11-14T08:11:08.938Z,4.34
2017-11-14T08:12:08.911Z,4.34
2017-11-14T08:13:08.907Z,4.34
2017-11-14T08:14:08.866Z,4.38
2017-11-14T08:15:08.842Z,4.41
2017-11-14T08:16:08.811Z,4.45
2017-11-14T08:17:08.792Z,4.43
2017-11-14T08:18:08.769Z,4.43
2017-11-14T08:19:08.736Z,4.45
2017-11-14T08:20:08.758Z,4.48
2017-11-14T08:21:08.686Z,4.43
2017-11-14T08:22:08.678Z,4.61
2017-11-14T08:23:08.640Z,4.59
2017-11-14T08:24:08.611Z,4.60
2017-11-14T08:25:08.590Z,4.66
2017-11-14T08:26:08.576Z,4.69
2017-11-14T08:27:08.535Z,4.75
2017-11-14T08:28:08.512Z,4.69
2017-11-14T08:29:08.489Z,4.69
2017-11-14T08:30:08.464Z,4.82
2017-11-14T08:31:08.443Z,4.85
2017-11-14T08:32:08.412Z,4.85
2017-11-14T08:33:08.396Z,5.01
2017-11-14T08:34:08.365Z,4.94
2017-11-14T08:35:08.353Z,5.15
2017-11-14T08:36:08.319Z,5.21
2017-11-14T08:37:08.287Z,5.27
2017-11-14T08:38:08.291Z,5.25
2017-11-14T08:39:08.242Z,5.32
2017-11-14T08:40:08.212Z,5.34
2017-11-14T08:41:08.192Z,5.32
2017-11-14T08:42:08.165Z,5.43
2017-11-14T08:43:08.148Z,5.44
2017-11-14T08:44:08.117Z,5.47
2017-11-14T08:45:08.138Z,5.54
2017-11-14T08:46:08.070Z,5.57
2017-11-14T08:47:08.048Z,5.44
2017-11-14T08:48:08.017Z,5.57
2017-11-14T08:49:08.001Z,5.51
2017-11-14T08:50:07.973Z,5.62
2017-11-14T08:51:07.948Z,5.62
2017-11-14T08:52:07.919Z,5.76
2017-11-14T08:53:07.896Z,5.70
2017-11-14T08:54:07.870Z,5.84
2017-11-14T08:55:07.846Z,5.88
2017-11-14T08:56:07.822Z,5.80
2017-11-14T08:57:07.858Z,5.85
2017-11-14T08:58:07.783Z,5.94
2017-11-14T08:59:07.751Z,6.00
2017-11-14T09:00:07.735Z,5.94
2017-11-14T09:01:07.703Z,5.95
2017-11-14T09:02:07.691Z,5.91
2017-11-14T09:03:07.652Z,5.90
2017-11-14T09:04:07.629Z,5.93
2017-11-14T09:05:07.602Z,5.90
2017-11-14T09:06:07.585Z,5.94
2017-11-14T09:07:07.563Z,5.95
2017-11-14T09:08:07.530Z,5.85
2017-11-14T09:09:07.509Z,5.94
2017-11-14T09:10:07.484Z,5.91
2017-11-14T09:11:07.468Z,5.97
2017-11-14T09:12:07.450Z,5.98
2017-11-14T09:13:07.418Z,6.11
2017-11-14T09:14:07.387Z,6.09
2017-11-14T09:15:07.364Z,6.12
2017-11-14T09:16:07.341Z,6.09
2017-11-14T09:17:07.311Z,6.16
2017-11-14T09:18:07.289Z,6.35
2017-11-14T09:19:07.273Z,6.28
2017-11-14T09:20:07.254Z,6.35
2017-11-14T09:21:07.215Z,6.35
2017-11-14T09:22:07.192Z,6.50
2017-11-14T09:23:07.183Z,6.63
2017-11-14T09:24:07.147Z,6.52
2017-11-14T09:25:07.124Z,6.60
2017-11-14T09:26:07.115Z,6.67
2017-11-14T09:27:07.076Z,6.73
2017-11-14T09:28:07.050Z,6.82
2017-11-14T09:29:07.036Z,6.79
2017-11-14T09:30:07.008Z,6.86
2017-11-14T09:31:06.974Z,6.68
2017-11-14T09:32:06.966Z,6.75
2017-11-14T09:33:06.976Z,6.64
2017-11-14T09:34:06.920Z,6.60
2017-11-14T09:35:06.889Z,6.50
2017-11-14T09:36:06.859Z,6.47
2017-11-14T09:37:06.836Z,6.47
2017-11-14T09:38:06.814Z,6.42
2017-11-14T09:39:06.800Z,6.37
2017-11-14T09:40:06.772Z,6.37
2017-11-14T09:41:06.736Z,6.32
2017-11-14T09:42:06.712Z,6.35
2017-11-14T09:43:06.692Z,6.38
2017-11-14T09:44:06.676Z,6.34
2017-11-14T09:45:06.651Z,6.34
2017-11-14T09:46:06.619Z,6.31
2017-11-14T09:47:06.602Z,6.30
2017-11-14T09:48:06.572Z,6.43
2017-11-14T09:49:06.577Z,6.32
2017-11-14T09:50:06.522Z,6.32
2017-11-14T09:51:06.499Z,6.25
2017-11-14T09:52:06.495Z,6.37
2017-11-14T09:53:06.450Z,6.38
2017-11-14T09:54:06.432Z,6.38
2017-11-14T09:55:06.419Z,6.49
2017-11-14T09:56:06.380Z,6.50
2017-11-14T09:57:06.365Z,6.49
2017-11-14T09:58:06.330Z,6.56
2017-11-14T09:59:06.308Z,6.56
2017-11-14T10:00:06.285Z,6.57
2017-11-14T10:01:06.264Z,6.57
2017-11-14T10:02:06.238Z,6.73
2017-11-14T10:03:06.217Z,6.67
2017-11-14T10:04:06.195Z,6.79
2017-11-14T10:05:06.175Z,6.75
2017-11-14T10:06:06.146Z,6.73
2017-11-14T10:07:06.118Z,6.79
2017-11-14T10:08:06.092Z,6.83
2017-11-14T10:09:06.092Z,6.85
2017-11-14T10:10:06.045Z,6.83
2017-11-14T10:11:06.051Z,6.85
2017-11-14T10:12:06.002Z,6.88
2017-11-14T10:13:05.979Z,6.75
2017-11-14T10:14:05.998Z,6.82
2017-11-14T10:15:05.936Z,6.86
2017-11-14T10:16:05.902Z,6.82
2017-11-14T10:17:05.881Z,6.81
2017-11-14T10:18:05.854Z,6.82
2017-11-14T10:19:05.837Z,6.79
2017-11-14T10:20:05.826Z,6.83
2017-11-14T10:21:05.783Z,6.79
2017-11-14T10:22:05.780Z,6.79
2017-11-14T10:23:05.751Z,6.83
2017-11-14T10:24:05.721Z,6.79
2017-11-14T10:25:05.693Z,6.83
2017-11-14T10:26:05.664Z,6.86
2017-11-14T10:27:05.638Z,6.85
2017-11-14T10:28:05.625Z,6.88
2017-11-14T10:29:05.599Z,6.88
2017-11-14T10:30:05.568Z,6.99
2017-11-14T10:31:33.328Z,6.91
2017-11-14T10:32:05.522Z,6.89
2017-11-14T10:33:05.504Z,6.86
2017-11-14T10:34:05.483Z,6.89
2017-11-14T10:35:05.460Z,7.01
2017-11-14T10:36:05.489Z,7.03
2017-11-14T10:37:05.403Z,7.01
2017-11-14T10:38:05.380Z,7.06
2017-11-14T10:39:05.356Z,7.04
2017-11-14T10:40:05.346Z,7.00
2017-11-14T10:41:05.309Z,7.03
2017-11-14T10:42:05.289Z,7.03
2017-11-14T10:43:05.267Z,7.04
2017-11-14T10:44:05.245Z,7.16
2017-11-14T10:45:05.227Z,7.18
2017-11-14T10:46:05.191Z,7.29
2017-11-14T10:47:05.165Z,7.43
2017-11-14T10:48:05.151Z,7.61
2017-11-14T10:49:05.120Z,7.73
2017-11-14T10:50:05.108Z,7.81
2017-11-14T10:51:05.073Z,7.92
2017-11-14T10:52:05.087Z,7.94
2017-11-14T10:53:05.029Z,8.10
2017-11-14T10:54:05.014Z,8.21
2017-11-14T10:55:04.983Z,8.23
2017-11-14T10:56:04.956Z,8.38
2017-11-14T10:57:04.930Z,8.38
2017-11-14T10:58:04.912Z,8.41
2017-11-14T10:59:04.884Z,8.34
2017-11-14T11:00:04.860Z,8.39
2017-11-14T11:01:04.843Z,8.28
2017-11-14T11:02:04.832Z,8.31
2017-11-14T11:03:04.793Z,8.23
2017-11-14T11:04:04.775Z,8.23
2017-11-14T11:05:04.748Z,8.20
2017-11-14T11:06:04.724Z,8.24
2017-11-14T11:07:04.703Z,8.16
2017-11-14T11:08:04.676Z,8.21
2017-11-14T11:09:04.654Z,8.12
2017-11-14T11:10:04.641Z,8.19
2017-11-14T11:11:04.605Z,8.01
2017-11-14T11:12:04.582Z,8.12
2017-11-14T11:13:04.558Z,7.94
2017-11-14T11:14:04.540Z,7.96
2017-11-14T11:15:04.514Z,8.01
2017-11-14T11:16:04.491Z,7.99
2017-11-14T11:17:04.466Z,8.06
2017-11-14T11:18:04.449Z,8.10
2017-11-14T11:19:04.431Z,8.23
2017-11-14T11:20:04.412Z,8.23
2017-11-14T11:21:04.376Z,8.24
2017-11-14T11:22:04.358Z,8.31
2017-11-14T11:23:04.337Z,8.31
2017-11-14T11:24:04.328Z,8.24
2017-11-14T11:25:04.280Z,8.31
2017-11-14T11:26:04.260Z,8.28
2017-11-14T11:27:04.243Z,8.29
2017-11-14T11:28:04.220Z,8.26
2017-11-14T11:29:04.189Z,8.26
2017-11-14T11:30:04.194Z,8.16
2017-11-14T11:31:04.150Z,8.24
2017-11-14T11:32:04.837Z,8.13
2017-11-14T11:33:04.115Z,8.14
2017-11-14T11:34:04.072Z,8.06
2017-11-14T11:35:04.055Z,8.05
2017-11-14T11:36:04.028Z,8.09
2017-11-14T11:37:04.006Z,8.05
2017-11-14T11:38:03.980Z,7.99
2017-11-14T11:39:03.957Z,7.96
2017-11-14T11:40:03.937Z,7.98
2017-11-14T11:41:03.916Z,7.96
2017-11-14T11:42:03.889Z,8.13
2017-11-14T11:43:04.311Z,7.98
2017-11-14T11:44:03.844Z,7.94
2017-11-14T11:45:03.825Z,7.99
2017-11-14T11:46:03.795Z,7.99
2017-11-14T11:47:03.781Z,7.98
2017-11-14T11:48:03.762Z,7.92
2017-11-14T11:49:03.732Z,8.05
2017-11-14T11:50:03.719Z,8.01
2017-11-14T11:51:03.682Z,8.06
2017-11-14T11:52:03.660Z,8.14
2017-11-14T11:53:03.654Z,8.13
2017-11-14T11:54:03.611Z,8.09
2017-11-14T11:55:03.589Z,8.23
2017-11-14T11:56:03.567Z,8.17
2017-11-14T11:57:03.547Z,8.19
2017-11-14T11:58:03.526Z,8.09
2017-11-14T11:59:03.500Z,8.17
2017-11-14T12:00:03.486Z,8.19
2017-11-14T12:01:03.453Z,8.20
2017-11-14T12:02:03.428Z,8.14
2017-11-14T12:03:03.404Z,8.20
2017-11-14T12:04:03.413Z,8.19
2017-11-14T12:05:03.379Z,8.20
2017-11-14T12:06:03.332Z,8.16
2017-11-14T12:07:03.326Z,8.12
2017-11-14T12:08:03.294Z,8.24
2017-11-14T12:09:03.268Z,8.12
2017-11-14T12:10:03.246Z,8.24
2017-11-14T12:11:03.217Z,8.28
2017-11-14T12:12:03.196Z,8.35
2017-11-14T12:13:03.172Z,8.37
2017-11-14T12:14:03.165Z,8.32
2017-11-14T12:15:03.127Z,8.34
2017-11-14T12:16:03.114Z,8.53
2017-11-14T12:17:03.085Z,8.56
2017-11-14T12:18:03.057Z,8.57
2017-11-14T12:19:03.033Z,8.68
2017-11-14T12:20:03.017Z,8.68
2017-11-14T12:21:02.986Z,8.74
2017-11-14T12:22:02.967Z,8.72
2017-11-14T12:23:02.940Z,8.88
2017-11-14T12:24:02.920Z,8.98
2017-11-14T12:25:02.897Z,8.96
2017-11-14T12:26:02.885Z,9.03
2017-11-14T12:27:02.850Z,9.01
2017-11-14T12:28:02.911Z,9.04
2017-11-14T12:29:02.813Z,9.03
2017-11-14T12:30:02.786Z,8.96
2017-11-14T12:31:02.757Z,8.95
2017-11-14T12:32:02.745Z,8.96
2017-11-14T12:33:02.720Z,8.89
2017-11-14T12:34:02.689Z,8.78
2017-11-14T12:35:02.679Z,8.92
2017-11-14T12:36:02.647Z,8.90
2017-11-14T12:37:02.620Z,8.98
2017-11-14T12:38:02.601Z,8.93
2017-11-14T12:39:02.577Z,8.92
2017-11-14T12:40:02.560Z,8.95
2017-11-14T12:41:02.534Z,8.86
2017-11-14T12:42:02.520Z,8.92
2017-11-14T12:43:02.487Z,8.95
2017-11-14T12:44:02.468Z,8.92
2017-11-14T12:45:02.454Z,8.98
2017-11-14T12:46:02.418Z,8.95
2017-11-14T12:47:02.425Z,8.93
2017-11-14T12:48:02.374Z,8.92
2017-11-14T12:49:02.348Z,9.06
2017-11-14T12:50:02.357Z,8.90
2017-11-14T12:51:02.342Z,8.92
2017-11-14T12:52:02.286Z,8.83
2017-11-14T12:53:02.264Z,8.83
2017-11-14T12:54:02.232Z,8.89
2017-11-14T12:55:02.224Z,8.75
2017-11-14T12:56:02.194Z,8.78
2017-11-14T12:57:02.170Z,8.63
2017-11-14T12:58:02.155Z,8.71
2017-11-14T12:59:02.129Z,8.78
2017-11-14T13:00:02.105Z,8.78
2017-11-14T13:01:02.078Z,8.78
2017-11-14T13:02:02.049Z,8.77
2017-11-14T13:03:02.028Z,8.90
2017-11-14T13:04:02.005Z,8.90
2017-11-14T13:05:01.991Z,8.99
2017-11-14T13:06:01.959Z,9.01
2017-11-14T13:07:01.946Z,9.19
2017-11-14T13:08:01.916Z,9.16
2017-11-14T13:09:01.890Z,9.19
2017-11-14T13:10:01.870Z,9.19
2017-11-14T13:11:01.848Z,9.42
2017-11-14T13:12:01.823Z,9.32
2017-11-14T13:13:01.800Z,9.37
2017-11-14T13:14:01.779Z,9.42
2017-11-14T13:15:01.769Z,9.51
2017-11-14T13:16:01.737Z,9.52
2017-11-14T13:17:01.712Z,9.63
2017-11-14T13:18:01.726Z,9.67